Home > Products > Valid Products > TAF

000
FTUS46 KHNX 031120
TAFBFL
TAF
KBFL 031120Z 0312/0412 VRB05KT P6SM SCT200
     FM032100 28009KT P6SM FEW120 BKN200=



000
FTUS46 KHNX 031120
TAFFAT
TAF
KFAT 031120Z 0312/0412 VRB04KT P6SM SCT200
     FM040000 31006KT P6SM SCT120 BKN200=



000
FTUS46 KHNX 031120
TAFMCE
TAF
KMCE 031120Z 0312/0412 VRB04KT P6SM SCT200
     FM040000 31004KT P6SM SCT120 BKN200=



000
FTUS46 KHNX 030520
TAFBFL
TAF
KBFL 030520Z 0306/0406 VRB05KT P6SM FEW120 SCT200=



000
FTUS46 KHNX 030520
TAFMCE
TAF
KMCE 030520Z 0306/0406 VRB04KT P6SM FEW120 SCT200=



000
FTUS46 KHNX 030520
TAFFAT
TAF
KFAT 030520Z 0306/0406 VRB05KT P6SM FEW120 SCT200=



000
FTUS46 KHNX 030520
TAFBFL
TAF
KBFL 030520Z 0306/0406 VRB05KT P6SM FEW120 SCT200=



000
FTUS46 KHNX 030520
TAFMCE
TAF
KMCE 030520Z 0306/0406 VRB04KT P6SM FEW120 SCT200=



000
FTUS46 KHNX 030520
TAFFAT
TAF
KFAT 030520Z 0306/0406 VRB05KT P6SM FEW120 SCT200=



000
FTUS46 KHNX 022320
TAFFAT
TAF
KFAT 022320Z 0300/0324 VRB05KT P6SM FEW070 SCT200
     FM030400 VRB04KT P6SM SCT200=



000
FTUS46 KHNX 022320
TAFMCE
TAF
KMCE 022320Z 0300/0324 VRB04KT P6SM SCT200=



000
FTUS46 KHNX 022320
TAFBFL
TAF
KBFL 022320Z 0300/0324 VRB05KT P6SM FEW080 SCT200
     FM030400 VRB04KT P6SM SCT200=



000
FTUS46 KHNX 021720
TAFFAT
TAF
KFAT 021720Z 0218/0318 VRB04KT P6SM FEW070=



000
FTUS46 KHNX 021720
TAFBFL
TAF
KBFL 021720Z 0218/0318 VRB04KT P6SM FEW070=



000
FTUS46 KHNX 021720
TAFMCE
TAF
KMCE 021720Z 0218/0318 VRB04KT P6SM FEW070=



000
FTUS46 KHNX 021129
TAFBFL
TAF
KBFL 021129Z 0212/0312 VRB04KT P6SM SCT250=



000
FTUS46 KHNX 021129
TAFFAT
TAF
KFAT 021129Z 0212/0312 VRB04KT P6SM SCT250=



000
FTUS46 KHNX 021129
TAFMCE
TAF
KMCE 021129Z 0212/0312 VRB04KT P6SM SCT250=



000
FTUS46 KHNX 021129
TAFBFL
TAF
KBFL 021129Z 0212/0312 VRB04KT P6SM SCT250=



000
FTUS46 KHNX 021129
TAFMCE
TAF
KMCE 021129Z 0212/0312 VRB04KT P6SM SCT250=



000
FTUS46 KHNX 021129
TAFFAT
TAF
KFAT 021129Z 0212/0312 VRB04KT P6SM SCT250=



000
FTUS46 KHNX 020526
TAFMCE
TAF
KMCE 020526Z 0206/0306 VRB05KT P6SM -SHRA BKN100
     FM020800 VRB04KT P6SM SCT120=



000
FTUS46 KHNX 020526
TAFBFL
TAF
KBFL 020526Z 0206/0306 VRB04KT P6SM SCT100=



000
FTUS46 KHNX 020526
TAFFAT
TAF
KFAT 020526Z 0206/0306 27010KT P6SM -SHRA SCT070 BKN100
     FM020700 VRB04KT P6SM SCT120=



000
FTUS46 KHNX 020242 AAA
TAFMCE
TAF AMD
KMCE 020242Z 0203/0224 22012G20KT P6SM VCSH BKN100
     FM020600 27005KT P6SM SKC=



000
FTUS46 KHNX 020138 AAA
TAFFAT
TAF AMD
KFAT 020138Z 0202/0224 VRB05KT P6SM VCSH SCT100 BKN150
      TEMPO 0202/0204 23012G22KT SCT050 BKN100
     FM020400 VRB05KT P6SM SCT060
     FM020600 29006KT P6SM SKC=



000
FTUS46 KHNX 012320
TAFMCE
TAF
KMCE 012320Z 0200/0224 25005KT P6SM SKC
     FM020100 VRB03KT P6SM SCT060
      TEMPO 0201/0205 SHRA OVC030
     FM020600 29006KT P6SM SKC=



000
FTUS46 KHNX 012320
TAFBFL
TAF
KBFL 012320Z 0200/0224 05004KT P6SM VCSH SKC
     FM020500 VRB04KT P6SM SCT060
     FM020600 29006KT P6SM SKC=



000
FTUS46 KHNX 012320
TAFFAT
TAF
KFAT 012320Z 0200/0224 27005KT P6SM FEW150
     FM020200 VRB03KT P6SM SCT060
     FM020600 29006KT P6SM SKC=



000
FTUS46 KHNX 011720
TAFMCE
TAF
KMCE 011720Z 0118/0218 15008KT P6SM SKC
     FM020000 30005KT P6SM VCSH BKN060
     FM020500 VRB03KT P6SM SCT060=



000
FTUS46 KHNX 011720
TAFFAT
TAF
KFAT 011720Z 0118/0218 16007KT P6SM SKC
     FM020000 32006KT P6SM VCSH BKN060
     FM020500 VRB03KT P6SM SCT060=



000
FTUS46 KHNX 011720
TAFBFL
TAF
KBFL 011720Z 0118/0218 VRB04KT P6SM SKC
     FM020000 31010G17KT P6SM VCSH BKN060
     FM020500 VRB04KT P6SM SCT060=



000
FTUS46 KHNX 011143
TAFBFL
TAF
KBFL 011143Z 0112/0212 09007KT P6SM SKC
     FM011800 29008KT P6SM BKN250
     FM020000 31010KT P6SM VCSH BKN060
     FM020500 VRB04KT P6SM FEW060=



000
FTUS46 KHNX 011143
TAFMCE
TAF
KMCE 011143Z 0112/0212 VRB04KT P6SM SKC
     FM020000 30005KT P6SM VCSH BKN060
     FM020500 VRB03KT P6SM FEW060=



000
FTUS46 KHNX 011143
TAFFAT
TAF
KFAT 011143Z 0112/0212 VRB04KT P6SM SKC
     FM020000 32005KT P6SM VCSH BKN060
     FM020500 VRB03KT P6SM FEW060=



000
FTUS46 KHNX 011143
TAFBFL
TAF
KBFL 011143Z 0112/0212 09007KT P6SM SKC
     FM011800 29008KT P6SM BKN250
     FM020000 31010KT P6SM VCSH BKN060
     FM020500 VRB04KT P6SM FEW060=



000
FTUS46 KHNX 011143
TAFFAT
TAF
KFAT 011143Z 0112/0212 VRB04KT P6SM SKC
     FM020000 32005KT P6SM VCSH BKN060
     FM020500 VRB03KT P6SM FEW060=



000
FTUS46 KHNX 011143
TAFMCE
TAF
KMCE 011143Z 0112/0212 VRB04KT P6SM SKC
     FM020000 30005KT P6SM VCSH BKN060
     FM020500 VRB03KT P6SM FEW060=



000
FTUS46 KHNX 010520
TAFBFL
TAF
KBFL 010520Z 0106/0206 VRB04KT P6SM SCT250
     FM011800 29008KT P6SM BKN250
     FM020000 31010KT P6SM VCSH SCT060=



000
FTUS46 KHNX 010520
TAFMCE
TAF
KMCE 010520Z 0106/0206 VRB03KT P6SM SKC
     FM020000 VRB04KT P6SM VCSH SCT060=



000
FTUS46 KHNX 010520
TAFFAT
TAF
KFAT 010520Z 0106/0206 VRB03KT P6SM SKC
     FM020000 VRB04KT P6SM VCSH SCT060=



000
FTUS46 KHNX 302320
TAFBFL
TAF
KBFL 302320Z 0100/0124 30010KT P6SM SCT250
     FM010300 VRB04KT P6SM SCT250
     FM011800 29008KT P6SM BKN250=



000
FTUS46 KHNX 302320
TAFFAT
TAF
KFAT 302320Z 0100/0124 32009KT P6SM SKC
     FM010400 VRB03KT P6SM SKC=



000
FTUS46 KHNX 302320
TAFMCE
TAF
KMCE 302320Z 0100/0124 32013KT P6SM SCT250
     FM010300 VRB03KT P6SM SKC=



000
FTUS46 KHNX 301720
TAFFAT
TAF
KFAT 301720Z 3018/0118 VRB04KT P6SM SCT150
     FM302000 31010KT P6SM SKC
     FM010400 VRB03KT P6SM SKC=



000
FTUS46 KHNX 301720
TAFMCE
TAF
KMCE 301720Z 3018/0118 32015G23KT P6SM SCT250
     FM302100 32013KT P6SM SCT250
     FM010300 VRB03KT P6SM SKC=



000
FTUS46 KHNX 301720
TAFBFL
TAF
KBFL 301720Z 3018/0118 15006KT P6SM SCT040
     FM302100 30010KT P6SM SCT250
     FM010200 02004KT P6SM SCT250=



000
FTUS46 KHNX 301720
TAFFAT
TAF
KFAT 301720Z 3018/0118 VRB04KT P6SM SCT150
     FM302000 31010KT P6SM SKC
     FM010400 VRB03KT P6SM SKC=



000
FTUS46 KHNX 301720
TAFMCE
TAF
KMCE 301720Z 3018/0118 32015G23KT P6SM SCT250
     FM302100 32013KT P6SM SCT250
     FM010300 VRB03KT P6SM SKC=



000
FTUS46 KHNX 301720
TAFBFL
TAF
KBFL 301720Z 3018/0118 15006KT P6SM SCT040
     FM302100 30010KT P6SM SCT250
     FM010200 02004KT P6SM SCT250=



    US Dept of Commerce
    National Oceanic and Atmospheric Administration
    National Weather Service
    1325 East West Highway
    Silver Spring, MD 20910
    Page Author: NWS Internet Services Team
Disclaimer
Information Quality
Credits
Glossary
Privacy Policy
Freedom of Information Act (FOIA)
About Us
Career Opportunities